createdAt,value
2022-10-16T00:01:12.088Z,99835.75
2022-10-16T00:03:40.453Z,99836.25
2022-10-16T00:06:08.301Z,99829.47
2022-10-16T00:08:36.158Z,99833.44
2022-10-16T00:11:06.417Z,99836.78
2022-10-16T00:13:35.048Z,99840.38
2022-10-16T00:16:02.961Z,99843.78
2022-10-16T00:18:30.965Z,99847.38
2022-10-16T00:21:04.140Z,99844.94
2022-10-16T00:23:31.772Z,99847.66
2022-10-16T00:26:02.258Z,99850.72
2022-10-16T00:28:29.729Z,99849.22
2022-10-16T00:31:03.224Z,99840.09
2022-10-16T00:33:30.659Z,99837.00
2022-10-16T00:36:03.643Z,99845.75
2022-10-16T00:38:31.079Z,99840.97
2022-10-16T00:41:01.237Z,99844.25
2022-10-16T00:43:40.843Z,99846.78
2022-10-16T00:46:28.698Z,99847.38
2022-10-16T00:49:02.550Z,99855.22
2022-10-16T00:51:36.421Z,99864.84
2022-10-16T00:54:07.482Z,99865.13
2022-10-16T00:56:34.952Z,99865.66
2022-10-16T00:59:08.732Z,99873.97
2022-10-16T01:01:35.737Z,99872.47
2022-10-16T01:04:02.875Z,99866.09
2022-10-16T01:06:57.827Z,99850.19
2022-10-16T01:09:45.173Z,99856.31
2022-10-16T01:12:31.510Z,99857.81
2022-10-16T01:15:06.097Z,99854.00
2022-10-16T01:17:44.053Z,99856.78
2022-10-16T01:20:21.559Z,99857.31
2022-10-16T01:23:00.838Z,99857.06
2022-10-16T01:25:49.160Z,99852.81
2022-10-16T01:28:18.418Z,99855.56
2022-10-16T01:30:46.344Z,99861.13
2022-10-16T01:33:25.544Z,99860.84
2022-10-16T01:35:57.090Z,99852.44
2022-10-16T01:38:36.398Z,99855.91
2022-10-16T01:41:10.664Z,99854.94
2022-10-16T01:43:43.503Z,99849.09
2022-10-16T01:46:11.981Z,99846.28
2022-10-16T01:48:40.579Z,99853.66
2022-10-16T01:51:11.179Z,99844.59
2022-10-16T01:53:43.099Z,99853.66
2022-10-16T01:56:17.344Z,99856.50
2022-10-16T01:58:52.119Z,99864.00
2022-10-16T02:01:24.672Z,99858.97
2022-10-16T02:03:55.051Z,99864.56
2022-10-16T02:06:24.564Z,99859.31
2022-10-16T02:08:51.589Z,99857.81
2022-10-16T02:11:18.603Z,99856.31
2022-10-16T02:13:49.948Z,99853.47
2022-10-16T02:16:17.015Z,99854.00
2022-10-16T02:18:44.960Z,99861.28
2022-10-16T02:21:20.157Z,99866.78
2022-10-16T02:23:55.506Z,99867.72
2022-10-16T02:27:06.841Z,99872.72
2022-10-16T02:29:38.879Z,99870.69
2022-10-16T02:32:09.636Z,99874.28
2022-10-16T02:34:38.089Z,99880.34
2022-10-16T02:37:06.454Z,99877.56
2022-10-16T02:39:34.685Z,99881.56
2022-10-16T02:42:06.379Z,99879.56
2022-10-16T02:44:33.219Z,99882.13
2022-10-16T02:47:00.253Z,99879.88
2022-10-16T02:49:27.168Z,99884.72
2022-10-16T02:51:54.192Z,99889.28
2022-10-16T02:54:21.144Z,99888.81
2022-10-16T02:56:48.253Z,99881.13
2022-10-16T02:59:15.283Z,99877.19
2022-10-16T03:01:45.497Z,99885.66
2022-10-16T03:04:12.431Z,99887.41
2022-10-16T03:06:39.470Z,99891.16
2022-10-16T03:09:06.268Z,99892.19
2022-10-16T03:11:35.572Z,99886.19
2022-10-16T03:14:02.421Z,99884.22
2022-10-16T03:16:29.543Z,99886.50
2022-10-16T03:18:56.417Z,99890.59
2022-10-16T03:21:23.525Z,99889.63
2022-10-16T03:23:50.427Z,99888.13
2022-10-16T03:26:17.681Z,99889.91
2022-10-16T03:28:44.621Z,99891.91
2022-10-16T03:31:11.847Z,99903.31
2022-10-16T03:33:38.710Z,99904.09
2022-10-16T03:36:05.887Z,99899.59
2022-10-16T03:38:32.739Z,99900.38
2022-10-16T03:40:59.793Z,99908.72
2022-10-16T03:43:26.710Z,99908.47
2022-10-16T03:45:53.803Z,99907.72
2022-10-16T03:48:20.880Z,99918.25
2022-10-16T03:50:49.379Z,99914.53
2022-10-16T03:53:16.284Z,99929.41
2022-10-16T03:55:44.362Z,99928.66
2022-10-16T03:58:12.251Z,99930.69
2022-10-16T04:00:46.100Z,99923.41
2022-10-16T04:03:13.331Z,99937.00
2022-10-16T04:05:41.041Z,99921.19
2022-10-16T04:08:08.316Z,99926.25
2022-10-16T04:10:35.383Z,99917.69
2022-10-16T04:13:04.904Z,99931.28
2022-10-16T04:15:32.155Z,99926.72
2022-10-16T04:17:59.017Z,99930.47
2022-10-16T04:20:26.078Z,99942.56
2022-10-16T04:22:53.275Z,99939.28
2022-10-16T04:25:20.309Z,99934.47
2022-10-16T04:27:47.285Z,99930.47
2022-10-16T04:30:16.687Z,99921.44
2022-10-16T04:32:43.689Z,99925.94
2022-10-16T04:35:10.781Z,99932.72
2022-10-16T04:37:37.607Z,99940.78
2022-10-16T04:40:05.275Z,99940.50
2022-10-16T04:42:34.559Z,99943.50
2022-10-16T04:45:01.628Z,99940.00
2022-10-16T04:47:28.885Z,99950.56
2022-10-16T04:49:57.975Z,99939.97
2022-10-16T04:52:26.099Z,99948.00
2022-10-16T04:54:53.314Z,99956.28
2022-10-16T04:57:20.249Z,99954.75
2022-10-16T04:59:47.314Z,99952.78
2022-10-16T05:02:16.528Z,99954.75
2022-10-16T05:04:46.053Z,99964.88
2022-10-16T05:07:13.109Z,99958.84
2022-10-16T05:09:42.621Z,99954.81
2022-10-16T05:12:09.557Z,99971.19
2022-10-16T05:14:39.139Z,99960.66
2022-10-16T05:17:06.120Z,99969.94
2022-10-16T05:19:33.361Z,99962.91
2022-10-16T05:22:00.302Z,99975.00
2022-10-16T05:24:27.934Z,99971.19
2022-10-16T05:26:55.103Z,99984.53
2022-10-16T05:29:22.400Z,99985.53
2022-10-16T05:31:54.592Z,99993.84
2022-10-16T05:34:22.231Z,99988.03
2022-10-16T05:36:49.376Z,99975.69
2022-10-16T05:39:16.928Z,99984.94
2022-10-16T05:41:47.690Z,99988.69
2022-10-16T05:44:14.837Z,99982.13
2022-10-16T05:46:43.964Z,99990.16
2022-10-16T05:49:13.518Z,99999.91
2022-10-16T05:51:40.666Z,100002.16
2022-10-16T05:54:07.804Z,100006.13
2022-10-16T05:56:34.751Z,100009.63
2022-10-16T05:59:01.846Z,100006.59
2022-10-16T06:01:32.064Z,100011.03
2022-10-16T06:03:59.635Z,100014.41
2022-10-16T06:06:29.358Z,100020.59
2022-10-16T06:08:57.609Z,100023.53
2022-10-16T06:11:27.513Z,100032.72
2022-10-16T06:13:57.715Z,100037.19
2022-10-16T06:16:26.667Z,100034.31
2022-10-16T06:18:56.821Z,100039.22
2022-10-16T06:21:26.288Z,100044.19
2022-10-16T06:23:54.711Z,100051.66
2022-10-16T06:26:24.407Z,100051.00
2022-10-16T06:28:51.861Z,100061.34
2022-10-16T06:31:19.128Z,100067.91
2022-10-16T06:33:49.417Z,100066.31
2022-10-16T06:36:17.973Z,100068.59
2022-10-16T06:38:45.846Z,100073.81
2022-10-16T06:41:17.599Z,100080.88
2022-10-16T06:43:48.958Z,100080.34
2022-10-16T06:46:18.737Z,100071.25
2022-10-16T06:48:46.297Z,100081.84
2022-10-16T06:51:16.988Z,100080.44
2022-10-16T06:54:02.814Z,100084.78
2022-10-16T06:56:32.266Z,100096.91
2022-10-16T06:59:02.601Z,100106.19
2022-10-16T07:01:30.129Z,100109.03
2022-10-16T07:03:57.884Z,100107.75
2022-10-16T07:06:26.020Z,100107.31
2022-10-16T07:08:53.969Z,100105.06
2022-10-16T07:11:24.184Z,100115.41
2022-10-16T07:13:54.775Z,100114.56
2022-10-16T07:16:26.631Z,100113.16
2022-10-16T07:18:59.876Z,100117.16
2022-10-16T07:21:30.235Z,100122.84
2022-10-16T07:23:59.665Z,100119.19
2022-10-16T07:26:27.858Z,100125.97
2022-10-16T07:28:55.333Z,100118.84
2022-10-16T07:31:22.536Z,100128.00
2022-10-16T07:33:50.661Z,100121.16
2022-10-16T07:36:23.290Z,100110.97
2022-10-16T07:38:52.834Z,100116.19
2022-10-16T07:41:25.047Z,100114.53
2022-10-16T07:43:54.493Z,100113.31
2022-10-16T07:46:23.513Z,100114.81
2022-10-16T07:48:53.561Z,100119.78
2022-10-16T07:51:24.923Z,100125.81
2022-10-16T07:53:52.483Z,100127.28
2022-10-16T07:56:20.935Z,100124.94
2022-10-16T07:58:50.317Z,100137.69
2022-10-16T08:01:18.052Z,100142.50
2022-10-16T08:03:47.245Z,100143.72
2022-10-16T08:06:14.654Z,100143.84
2022-10-16T08:08:41.842Z,100152.72
2022-10-16T08:11:09.568Z,100147.34
2022-10-16T08:13:37.274Z,100160.69
2022-10-16T08:16:08.957Z,100158.38
2022-10-16T08:18:37.791Z,100168.22
2022-10-16T08:21:05.962Z,100167.91
2022-10-16T08:23:34.139Z,100167.16
2022-10-16T08:26:07.441Z,100173.72
2022-10-16T08:28:35.924Z,100182.22
2022-10-16T08:31:14.650Z,100175.88
2022-10-16T08:33:44.569Z,100171.97
2022-10-16T08:36:12.110Z,100181.00
2022-10-16T08:38:41.610Z,100181.00
2022-10-16T08:41:16.894Z,100179.19
2022-10-16T08:44:24.257Z,100171.75
2022-10-16T08:46:57.234Z,100180.53
2022-10-16T08:49:26.890Z,100174.06
2022-10-16T08:52:01.251Z,100172.56
2022-10-16T08:54:41.796Z,100170.22
2022-10-16T08:57:21.585Z,100175.88
2022-10-16T08:59:52.423Z,100184.56
2022-10-16T09:02:28.604Z,100190.75
2022-10-16T09:05:01.753Z,100191.75
2022-10-16T09:07:42.759Z,100195.38
2022-10-16T09:10:42.175Z,100196.56
2022-10-16T09:13:29.660Z,100197.41
2022-10-16T09:16:22.918Z,100199.75
2022-10-16T09:19:05.983Z,100204.47
2022-10-16T09:21:41.171Z,100205.19
2022-10-16T09:24:18.215Z,100206.69
2022-10-16T09:26:48.682Z,100204.34
2022-10-16T09:29:17.936Z,100208.66
2022-10-16T09:31:45.132Z,100209.09
2022-10-16T09:34:39.109Z,100214.66
2022-10-16T09:37:13.635Z,100224.84
2022-10-16T09:39:49.183Z,100229.22
2022-10-16T09:42:32.612Z,100221.53
2022-10-16T09:44:59.961Z,100225.97
2022-10-16T09:47:29.942Z,100236.88
2022-10-16T09:50:03.340Z,100241.78
2022-10-16T09:52:31.773Z,100239.91
2022-10-16T09:55:18.420Z,100240.84
2022-10-16T09:57:52.715Z,100246.34
2022-10-16T10:00:20.964Z,100244.34
2022-10-16T10:02:48.724Z,100245.53
2022-10-16T10:05:26.371Z,100246.41
2022-10-16T10:08:09.402Z,100247.63
2022-10-16T10:10:44.263Z,100252.84
2022-10-16T10:13:22.309Z,100250.97
2022-10-16T10:15:49.832Z,100238.63
2022-10-16T10:18:23.984Z,100250.56
2022-10-16T10:21:02.144Z,100243.22
2022-10-16T10:23:31.882Z,100246.72
2022-10-16T10:26:13.986Z,100237.88
2022-10-16T10:28:59.411Z,100239.81
2022-10-16T10:31:29.485Z,100232.81
2022-10-16T10:34:15.331Z,100235.97
2022-10-16T10:36:45.134Z,100245.81
2022-10-16T10:39:20.085Z,100232.44
2022-10-16T10:42:17.764Z,100231.34
2022-10-16T10:45:06.929Z,100225.34
2022-10-16T10:47:51.936Z,100228.31
2022-10-16T10:50:22.163Z,100235.63
2022-10-16T10:52:59.757Z,100238.78
2022-10-16T10:55:42.215Z,100235.94
2022-10-16T10:58:41.351Z,100242.47
2022-10-16T11:01:13.219Z,100226.78
2022-10-16T11:03:58.870Z,100228.91
2022-10-16T11:09:19.712Z,100222.69
2022-10-16T11:12:09.987Z,100228.00
2022-10-16T11:14:47.278Z,100225.03
2022-10-16T11:17:31.995Z,100228.00
2022-10-16T11:20:20.959Z,100225.88
2022-10-16T11:23:14.286Z,100222.81
2022-10-16T11:25:42.367Z,100219.84
2022-10-16T11:28:17.762Z,100217.47
2022-10-16T11:30:51.213Z,100215.75
2022-10-16T11:33:25.986Z,100222.28
2022-10-16T11:35:55.904Z,100219.09
2022-10-16T11:38:55.858Z,100209.63
2022-10-16T11:41:25.779Z,100213.56
2022-10-16T11:44:21.742Z,100212.22
2022-10-16T11:47:54.414Z,100221.16
2022-10-16T11:50:18.583Z,100218.69
2022-10-16T11:53:13.871Z,100210.28
2022-10-16T11:55:46.808Z,100212.56
2022-10-16T11:58:32.070Z,100199.16
2022-10-16T12:01:18.010Z,100214.47
2022-10-16T12:03:54.535Z,100216.69
2022-10-16T12:06:37.280Z,100215.34
2022-10-16T12:09:04.975Z,100216.28
2022-10-16T12:11:38.630Z,100204.66
2022-10-16T12:14:13.419Z,100202.78
2022-10-16T12:16:53.181Z,100207.47
2022-10-16T12:19:21.726Z,100203.69
2022-10-16T12:21:51.091Z,100197.03
2022-10-16T12:24:38.001Z,100191.78
2022-10-16T12:27:08.186Z,100194.56
2022-10-16T12:29:43.986Z,100194.03
2022-10-16T12:33:01.069Z,100200.53
2022-10-16T12:35:32.877Z,100194.09
2022-10-16T12:38:09.495Z,100203.22
2022-10-16T12:40:39.186Z,100204.88
2022-10-16T12:43:24.909Z,100199.16
2022-10-16T12:46:20.949Z,100199.13
2022-10-16T12:49:05.900Z,100203.72
2022-10-16T12:51:33.743Z,100210.44
2022-10-16T12:54:07.884Z,100211.41
2022-10-16T12:57:22.364Z,100212.53
2022-10-16T13:00:08.049Z,100210.50
2022-10-16T13:02:47.046Z,100209.94
2022-10-16T13:05:14.097Z,100212.38
2022-10-16T13:07:44.083Z,100204.53
2022-10-16T13:10:28.569Z,100210.31
2022-10-16T13:13:31.441Z,100201.28
2022-10-16T13:16:15.892Z,100212.47
2022-10-16T13:18:59.728Z,100210.59
2022-10-16T13:21:26.582Z,100215.06
2022-10-16T13:24:09.328Z,100213.41
2022-10-16T13:27:00.705Z,100216.22
2022-10-16T13:29:33.071Z,100213.22
2022-10-16T13:32:10.294Z,100214.00
2022-10-16T13:34:46.838Z,100209.16
2022-10-16T13:37:21.885Z,100212.06
2022-10-16T13:39:51.853Z,100222.88
2022-10-16T13:42:28.237Z,100218.34
2022-10-16T13:44:57.425Z,100216.81
2022-10-16T13:47:30.362Z,100219.63
2022-10-16T13:50:03.939Z,100220.69
2022-10-16T13:52:31.166Z,100226.53
2022-10-16T13:55:01.764Z,100219.44
2022-10-16T13:57:32.637Z,100222.03
2022-10-16T13:59:59.844Z,100223.09
2022-10-16T14:02:28.936Z,100223.28
2022-10-16T14:04:58.866Z,100224.41
2022-10-16T14:07:29.489Z,100223.69
2022-10-16T14:09:58.864Z,100225.50
2022-10-16T14:12:28.165Z,100227.56
2022-10-16T14:14:58.424Z,100227.94
2022-10-16T14:17:28.864Z,100232.41
2022-10-16T14:20:04.064Z,100233.16
2022-10-16T14:22:44.048Z,100229.94
2022-10-16T14:25:25.991Z,100229.81
2022-10-16T14:28:04.964Z,100225.00
2022-10-16T14:30:36.107Z,100230.69
2022-10-16T14:33:21.068Z,100224.31
2022-10-16T14:36:06.134Z,100221.72
2022-10-16T14:38:34.453Z,100227.69
2022-10-16T14:41:02.720Z,100231.41
2022-10-16T14:43:37.686Z,100223.91
2022-10-16T14:46:14.591Z,100222.03
2022-10-16T14:48:48.963Z,100233.31
2022-10-16T14:51:20.912Z,100234.88
2022-10-16T14:53:48.439Z,100236.00
2022-10-16T14:56:22.122Z,100232.13
2022-10-16T14:58:49.927Z,100239.88
2022-10-16T15:01:17.277Z,100239.91
2022-10-16T15:03:47.327Z,100241.06
2022-10-16T15:06:16.729Z,100237.38
2022-10-16T15:08:46.614Z,100246.31
2022-10-16T15:11:16.595Z,100241.97
2022-10-16T15:13:43.789Z,100244.78
2022-10-16T15:16:16.399Z,100239.03
2022-10-16T15:18:44.032Z,100238.09
2022-10-16T15:21:31.130Z,100241.44
2022-10-16T15:23:59.566Z,100245.41
2022-10-16T15:26:28.361Z,100243.56
2022-10-16T15:28:57.839Z,100246.22
2022-10-16T15:31:25.142Z,100250.59
2022-10-16T15:33:57.095Z,100249.13
2022-10-16T15:36:34.893Z,100245.63
2022-10-16T15:39:01.803Z,100241.72
2022-10-16T15:41:31.680Z,100242.88
2022-10-16T15:43:58.921Z,100250.53
2022-10-16T15:46:26.437Z,100251.47
2022-10-16T15:48:58.281Z,100254.88
2022-10-16T15:51:28.610Z,100260.13
2022-10-16T15:53:55.621Z,100250.94
2022-10-16T15:56:23.496Z,100256.34
2022-10-16T15:58:50.407Z,100250.31
2022-10-16T16:01:18.046Z,100256.25
2022-10-16T16:03:47.393Z,100263.69
2022-10-16T16:06:15.597Z,100264.19
2022-10-16T16:08:42.935Z,100253.69
2022-10-16T16:11:12.984Z,100257.34
2022-10-16T16:13:41.170Z,100257.78
2022-10-16T16:16:18.731Z,100251.56
2022-10-16T16:18:50.434Z,100256.31
2022-10-16T16:21:17.687Z,100262.00
2022-10-16T16:23:44.677Z,100252.94
2022-10-16T16:26:15.945Z,100256.56
2022-10-16T16:28:44.327Z,100262.66
2022-10-16T16:31:11.723Z,100253.25
2022-10-16T16:33:43.987Z,100264.22
2022-10-16T16:36:15.736Z,100271.53
2022-10-16T16:38:43.350Z,100280.38
2022-10-16T16:41:23.710Z,100272.25
2022-10-16T16:43:52.362Z,100282.38
2022-10-16T16:46:20.363Z,100281.97
2022-10-16T16:48:47.751Z,100282.16
2022-10-16T16:51:20.997Z,100285.63
2022-10-16T16:53:50.576Z,100287.78
2022-10-16T16:56:20.697Z,100288.31
2022-10-16T16:58:52.308Z,100286.78
2022-10-16T17:01:21.581Z,100301.50
2022-10-16T17:03:53.066Z,100305.38
2022-10-16T17:06:29.572Z,100310.75
2022-10-16T17:08:57.652Z,100312.38
2022-10-16T17:11:28.643Z,100319.47
2022-10-16T17:13:59.386Z,100321.50
2022-10-16T17:16:39.783Z,100326.66
2022-10-16T17:19:11.731Z,100326.66
2022-10-16T17:21:41.712Z,100323.13
2022-10-16T17:24:10.162Z,100325.38
2022-10-16T17:26:43.800Z,100314.19
2022-10-16T17:29:13.447Z,100326.19
2022-10-16T17:31:42.282Z,100332.97
2022-10-16T17:34:12.954Z,100331.50
2022-10-16T17:36:47.380Z,100330.44
2022-10-16T17:39:18.571Z,100335.81
2022-10-16T17:41:48.999Z,100326.16
2022-10-16T17:44:22.059Z,100331.19
2022-10-16T17:46:54.353Z,100337.63
2022-10-16T17:51:56.171Z,100341.47
2022-10-16T17:54:24.656Z,100343.22
2022-10-16T17:56:54.271Z,100344.88
2022-10-16T17:59:23.666Z,100338.13
2022-10-16T18:01:52.685Z,100339.28
2022-10-16T18:04:23.994Z,100336.34
2022-10-16T18:06:54.397Z,100345.72
2022-10-16T18:09:23.387Z,100352.56
2022-10-16T18:12:00.080Z,100356.22
2022-10-16T18:14:31.707Z,100351.91
2022-10-16T18:17:02.275Z,100353.53
2022-10-16T18:19:30.073Z,100349.66
2022-10-16T18:21:59.250Z,100358.28
2022-10-16T18:24:27.501Z,100358.47
2022-10-16T18:26:57.279Z,100365.38
2022-10-16T18:29:27.762Z,100365.03
2022-10-16T18:31:57.725Z,100362.09
2022-10-16T18:34:27.849Z,100359.38
2022-10-16T18:36:58.088Z,100365.25
2022-10-16T18:39:28.502Z,100371.97
2022-10-16T18:42:00.221Z,100371.81
2022-10-16T18:44:30.007Z,100375.28
2022-10-16T18:46:59.727Z,100371.16
2022-10-16T18:49:28.284Z,100371.44
2022-10-16T18:51:57.730Z,100376.88
2022-10-16T18:54:31.984Z,100386.81
2022-10-16T18:57:00.653Z,100380.09
2022-10-16T18:59:33.581Z,100376.28
2022-10-16T19:02:05.206Z,100383.34
2022-10-16T19:04:33.834Z,100390.19
2022-10-16T19:07:02.764Z,100388.31
2022-10-16T19:09:34.622Z,100382.81
2022-10-16T19:12:03.697Z,100390.69
2022-10-16T19:14:33.211Z,100395.22
2022-10-16T19:17:04.608Z,100403.50
2022-10-16T19:19:34.300Z,100405.44
2022-10-16T19:22:21.906Z,100407.63
2022-10-16T19:24:49.648Z,100411.53
2022-10-16T19:27:18.229Z,100421.25
2022-10-16T19:29:48.731Z,100414.69
2022-10-16T19:32:19.354Z,100418.69
2022-10-16T19:34:51.426Z,100428.19
2022-10-16T19:37:19.834Z,100427.66
2022-10-16T19:39:49.497Z,100430.13
2022-10-16T19:42:17.164Z,100433.44
2022-10-16T19:44:45.334Z,100437.66
2022-10-16T19:47:13.235Z,100435.41
2022-10-16T19:49:40.369Z,100443.00
2022-10-16T19:52:07.583Z,100448.78
2022-10-16T19:54:36.341Z,100455.13
2022-10-16T19:57:03.803Z,100460.84
2022-10-16T19:59:31.210Z,100460.41
2022-10-16T20:01:58.920Z,100460.16
2022-10-16T20:04:26.333Z,100461.81
2022-10-16T20:06:56.667Z,100473.59
2022-10-16T20:09:23.881Z,100470.41
2022-10-16T20:11:50.981Z,100473.59
2022-10-16T20:14:18.503Z,100466.13
2022-10-16T20:16:46.180Z,100466.97
2022-10-16T20:19:13.360Z,100470.59
2022-10-16T20:21:40.985Z,100468.78
2022-10-16T20:24:08.456Z,100467.38
2022-10-16T20:26:36.917Z,100472.13
2022-10-16T20:29:05.745Z,100472.47
2022-10-16T20:31:35.967Z,100477.34
2022-10-16T20:34:08.739Z,100483.69
2022-10-16T20:36:37.636Z,100476.91
2022-10-16T20:39:06.367Z,100485.25
2022-10-16T20:41:35.491Z,100481.72
2022-10-16T20:44:05.447Z,100486.00
2022-10-16T20:46:33.046Z,100481.28
2022-10-16T20:49:10.420Z,100488.72
2022-10-16T20:51:44.125Z,100489.53
2022-10-16T20:54:11.727Z,100489.34
2022-10-16T20:56:42.937Z,100491.41
2022-10-16T20:59:11.798Z,100501.28
2022-10-16T21:01:39.686Z,100495.50
2022-10-16T21:04:08.759Z,100490.19
2022-10-16T21:06:39.274Z,100495.78
2022-10-16T21:09:07.544Z,100495.53
2022-10-16T21:11:38.938Z,100492.78
2022-10-16T21:14:08.381Z,100489.75
2022-10-16T21:16:35.949Z,100494.31
2022-10-16T21:19:03.731Z,100508.13
2022-10-16T21:21:33.788Z,100503.84
2022-10-16T21:24:01.181Z,100500.81
2022-10-16T21:26:31.729Z,100503.66
2022-10-16T21:29:04.702Z,100504.69
2022-10-16T21:31:32.376Z,100510.50
2022-10-16T21:33:59.802Z,100503.19
2022-10-16T21:36:30.036Z,100511.03
2022-10-16T21:39:11.206Z,100514.53
2022-10-16T21:41:41.386Z,100515.28
2022-10-16T21:44:09.260Z,100512.75
2022-10-16T21:46:39.487Z,100517.25
2022-10-16T21:49:10.016Z,100522.81
2022-10-16T21:51:39.826Z,100526.88
2022-10-16T21:54:09.809Z,100524.06
2022-10-16T21:56:39.268Z,100522.59
2022-10-16T21:59:06.806Z,100520.63
2022-10-16T22:01:34.015Z,100519.34
2022-10-16T22:04:01.096Z,100532.22
2022-10-16T22:06:28.896Z,100529.41
2022-10-16T22:09:01.268Z,100529.38
2022-10-16T22:11:36.526Z,100534.66
2022-10-16T22:14:05.674Z,100536.66
2022-10-16T22:16:33.705Z,100528.09
2022-10-16T22:19:07.078Z,100521.84
2022-10-16T22:21:39.732Z,100530.44
2022-10-16T22:24:10.093Z,100530.44
2022-10-16T22:26:38.614Z,100536.72
2022-10-16T22:29:06.788Z,100532.69
2022-10-16T22:31:36.580Z,100533.41
2022-10-16T22:34:04.759Z,100539.25
2022-10-16T22:36:32.795Z,100543.78
2022-10-16T22:39:00.372Z,100530.44
2022-10-16T22:41:27.575Z,100540.31
2022-10-16T22:43:54.551Z,100527.16
2022-10-16T22:46:54.540Z,100531.72
2022-10-16T22:49:22.210Z,100531.22
2022-10-16T22:54:21.610Z,100532.00
2022-10-16T22:56:48.873Z,100528.97
2022-10-16T22:59:15.776Z,100539.06
2022-10-16T23:01:43.070Z,100533.22
2022-10-16T23:04:10.038Z,100530.00
2022-10-16T23:06:37.294Z,100529.75
2022-10-16T23:09:04.513Z,100523.75
2022-10-16T23:11:31.769Z,100526.78
2022-10-16T23:14:00.951Z,100523.00
2022-10-16T23:16:28.215Z,100524.28
2022-10-16T23:18:58.299Z,100526.03
2022-10-16T23:21:26.015Z,100526.28
2022-10-16T23:23:54.379Z,100535.59
2022-10-16T23:26:25.346Z,100533.59
2022-10-16T23:28:52.549Z,100544.69
2022-10-16T23:31:19.960Z,100542.41
2022-10-16T23:33:46.904Z,100543.19
2022-10-16T23:36:17.880Z,100549.72
2022-10-16T23:38:45.649Z,100553.53
2022-10-16T23:41:13.717Z,100554.50
2022-10-16T23:43:43.003Z,100554.75
2022-10-16T23:46:14.054Z,100554.50
2022-10-16T23:48:41.311Z,100559.31
2022-10-16T23:51:09.699Z,100557.28
2022-10-16T23:53:37.149Z,100549.72
2022-10-16T23:56:04.714Z,100558.81
2022-10-16T23:58:34.114Z,100557.78
